Time;durP1;ratioP1;P1;durP2;ratioP2;P2;SDS_P1;SDS_P2;PMS_P1;PMS_P2;Temp;Humidity;BMP_temperature;BMP_pressure;BME280_temperature;BME280_humidity;BME280_pressure;Samples;Min_cycle;Max_cycle;Signal;HPM_P1;HPM_P2
2023/09/19 00:01:33;;;;;;;3.57;2.30;;;17.90;99.90;;;;;;4985645;28;21198;-52
2023/09/19 00:04:01;;;;;;;3.93;2.00;;;17.80;99.90;;;;;;4978769;28;21076;-51
2023/09/19 00:06:31;;;;;;;8.33;2.43;;;17.80;99.90;;;;;;4979442;28;20551;-52
2023/09/19 00:08:58;;;;;;;4.60;2.60;;;17.80;99.90;;;;;;4975311;28;20818;-52
2023/09/19 00:11:25;;;;;;;3.83;2.20;;;17.80;99.90;;;;;;4970553;28;20488;-52
2023/09/19 00:13:52;;;;;;;6.40;2.60;;;17.80;99.90;;;;;;4970720;28;21226;-52
2023/09/19 00:16:19;;;;;;;7.30;2.40;;;17.80;99.90;;;;;;4969382;28;20552;-52
2023/09/19 00:18:46;;;;;;;2.83;2.10;;;17.80;99.90;;;;;;4971987;28;20496;-52
2023/09/19 00:21:15;;;;;;;4.00;2.27;;;17.80;99.90;;;;;;4970542;28;20470;-51
2023/09/19 00:23:41;;;;;;;7.67;2.13;;;17.80;99.90;;;;;;4970865;28;20576;-52
2023/09/19 00:26:08;;;;;;;4.77;2.80;;;17.80;99.90;;;;;;4967670;28;20461;-51
2023/09/19 00:28:35;;;;;;;12.60;2.67;;;17.80;99.90;;;;;;4970937;28;20458;-53
2023/09/19 00:31:02;;;;;;;10.90;2.13;;;17.80;99.90;;;;;;4970631;28;20469;-52
2023/09/19 00:33:29;;;;;;;3.50;1.80;;;17.80;99.90;;;;;;4968850;28;20481;-52
2023/09/19 00:35:57;;;;;;;4.40;2.33;;;17.80;99.90;;;;;;4970599;28;20520;-52
2023/09/19 00:38:26;;;;;;;6.73;2.27;;;17.80;99.90;;;;;;4976763;28;20457;-52
2023/09/19 00:40:54;;;;;;;3.67;1.77;;;17.80;99.90;;;;;;4970029;28;20568;-53
2023/09/19 00:43:23;;;;;;;4.50;2.40;;;17.70;99.90;;;;;;4970651;28;20513;-51
2023/09/19 00:45:52;;;;;;;3.03;1.90;;;17.80;99.90;;;;;;4969569;28;20469;-51
2023/09/19 00:48:20;;;;;;;4.30;2.27;;;17.70;99.90;;;;;;4973547;28;20484;-51
2023/09/19 00:50:48;;;;;;;6.50;2.33;;;17.80;99.90;;;;;;4971026;28;21076;-52
2023/09/19 00:53:18;;;;;;;8.60;2.00;;;17.70;99.90;;;;;;4969901;28;20485;-52
2023/09/19 00:55:47;;;;;;;5.97;2.30;;;17.70;99.90;;;;;;4971022;28;20492;-52
2023/09/19 00:58:14;;;;;;;2.50;1.83;;;17.70;99.90;;;;;;4969583;28;20894;-52
2023/09/19 01:00:44;;;;;;;4.33;2.40;;;17.70;99.90;;;;;;4971093;28;20911;-51
2023/09/19 01:03:13;;;;;;;9.30;2.50;;;17.70;99.90;;;;;;4969630;28;22017;-51
2023/09/19 01:05:40;;;;;;;6.17;1.97;;;17.70;99.90;;;;;;4969829;28;21093;-51
2023/09/19 01:08:07;;;;;;;6.87;2.73;;;17.70;99.90;;;;;;4973441;28;20465;-52
2023/09/19 01:10:34;;;;;;;5.67;2.27;;;17.70;99.90;;;;;;4975475;28;20822;-51
2023/09/19 01:13:10;;;;;;;8.27;2.27;;;17.70;99.90;;;;;;4975345;28;20517;-51
2023/09/19 01:15:43;;;;;;;6.40;2.17;;;17.70;99.90;;;;;;4969240;28;20461;-52
2023/09/19 01:18:20;;;;;;;6.50;2.40;;;17.70;99.90;;;;;;4976157;28;20512;-52
2023/09/19 01:20:58;;;;;;;7.40;2.43;;;17.70;99.90;;;;;;4966549;28;20470;-52
2023/09/19 01:23:35;;;;;;;3.80;2.30;;;17.70;99.90;;;;;;4979922;28;20899;-52
2023/09/19 01:26:09;;;;;;;7.00;2.20;;;17.70;99.90;;;;;;4977792;28;20543;-53
2023/09/19 01:28:54;;;;;;;1.90;1.30;;;17.70;99.90;;;;;;4986487;28;20923;-52
2023/09/19 01:31:23;;;;;;;5.93;2.23;;;17.70;99.90;;;;;;4973852;28;20464;-53
2023/09/19 01:36:23;;;;;;;9.37;1.97;;;17.80;99.90;;;;;;5018239;28;21368;-54
2023/09/19 01:38:49;;;;;;;7.03;2.83;;;17.80;99.90;;;;;;5021424;28;20462;-54
2023/09/19 01:41:22;;;;;;;4.90;1.73;;;17.80;99.90;;;;;;5020303;28;20541;-54
2023/09/19 01:43:51;;;;;;;8.73;2.50;;;17.80;99.90;;;;;;5021670;28;20455;-54
2023/09/19 01:46:25;;;;;;;5.30;2.17;;;17.80;99.90;;;;;;5012610;28;20566;-55
2023/09/19 01:49:03;;;;;;;6.63;2.40;;;17.70;99.90;;;;;;5005563;28;20582;-54
2023/09/19 01:51:47;;;;;;;3.47;2.00;;;17.70;99.90;;;;;;5018530;28;20960;-54
2023/09/19 01:54:18;;;;;;;6.40;2.50;;;17.70;99.90;;;;;;5010752;28;20570;-54
2023/09/19 01:56:51;;;;;;;7.30;2.90;;;17.60;99.90;;;;;;5013443;28;20496;-54
2023/09/19 01:59:28;;;;;;;2.93;2.57;;;17.60;99.90;;;;;;5017481;28;20466;-54
2023/09/19 02:01:57;;;;;;;4.53;2.63;;;17.60;99.90;;;;;;5015995;28;20917;-53
2023/09/19 02:04:24;;;;;;;4.47;2.40;;;17.60;99.90;;;;;;5021736;28;20495;-55
2023/09/19 02:06:51;;;;;;;5.10;2.57;;;17.60;99.90;;;;;;5009054;28;21120;-54
2023/09/19 02:09:18;;;;;;;5.97;2.97;;;17.50;99.90;;;;;;5021478;28;20469;-54
2023/09/19 02:11:44;;;;;;;8.40;2.80;;;17.50;99.90;;;;;;5015261;28;20539;-55
2023/09/19 02:14:11;;;;;;;4.90;3.00;;;17.40;99.90;;;;;;5010994;28;21078;-54
2023/09/19 02:16:38;;;;;;;17.17;3.60;;;17.40;99.90;;;;;;5007288;28;21004;-55
2023/09/19 02:19:06;;;;;;;10.13;2.90;;;17.40;99.90;;;;;;5021987;28;20479;-55
2023/09/19 02:21:31;;;;;;;8.43;3.77;;;17.30;99.90;;;;;;5010465;28;20483;-54
2023/09/19 02:23:58;;;;;;;8.27;3.40;;;17.30;99.90;;;;;;5009221;28;20511;-54
2023/09/19 02:26:25;;;;;;;9.50;4.07;;;17.30;99.90;;;;;;5013251;28;20201;-54
2023/09/19 02:28:53;;;;;;;8.83;3.47;;;17.30;99.90;;;;;;5021969;28;20487;-55
2023/09/19 02:31:19;;;;;;;9.00;4.97;;;17.20;99.90;;;;;;5019991;28;20516;-50
2023/09/19 02:33:46;;;;;;;8.47;3.77;;;17.20;99.90;;;;;;5015760;28;20579;-51
2023/09/19 02:36:16;;;;;;;6.07;3.70;;;17.20;99.90;;;;;;5010577;28;20477;-51
2023/09/19 02:38:43;;;;;;;11.67;3.90;;;17.20;99.90;;;;;;5024332;28;20550;-51
2023/09/19 02:41:09;;;;;;;13.93;4.57;;;17.20;99.90;;;;;;5021555;28;20909;-50
2023/09/19 02:43:36;;;;;;;7.70;4.53;;;17.20;99.90;;;;;;5020750;28;20494;-50
2023/09/19 02:46:03;;;;;;;8.33;4.53;;;17.20;99.90;;;;;;5023141;28;20619;-50
2023/09/19 02:48:32;;;;;;;12.50;4.27;;;17.20;99.90;;;;;;5025169;28;20459;-50
2023/09/19 02:50:58;;;;;;;8.53;4.47;;;17.10;99.90;;;;;;5018575;28;20980;-50
2023/09/19 02:53:26;;;;;;;6.20;3.23;;;17.10;99.90;;;;;;5015948;28;20574;-51
2023/09/19 02:55:53;;;;;;;16.20;4.87;;;17.10;99.90;;;;;;5010742;28;20547;-54
2023/09/19 02:58:19;;;;;;;8.37;3.20;;;17.10;99.90;;;;;;5017136;28;20459;-54
2023/09/19 03:00:47;;;;;;;8.53;3.50;;;17.10;99.90;;;;;;5011523;28;20903;-54
2023/09/19 03:03:15;;;;;;;11.73;3.80;;;17.00;99.90;;;;;;5021708;28;20487;-54
2023/09/19 03:05:46;;;;;;;6.60;3.70;;;17.00;99.90;;;;;;5012575;28;20490;-55
2023/09/19 03:08:14;;;;;;;5.90;3.57;;;17.00;99.90;;;;;;5014444;28;20490;-55
2023/09/19 03:10:42;;;;;;;14.90;4.53;;;17.00;99.90;;;;;;5014159;28;20459;-54
2023/09/19 03:13:09;;;;;;;6.87;4.13;;;17.00;99.90;;;;;;5019142;28;20585;-54
2023/09/19 03:15:38;;;;;;;5.73;3.70;;;17.00;99.90;;;;;;5010860;28;20565;-54
2023/09/19 03:18:05;;;;;;;7.80;3.70;;;16.90;99.90;;;;;;5016788;28;20464;-54
2023/09/19 03:20:32;;;;;;;5.43;3.13;;;17.00;99.90;;;;;;5018266;28;20528;-54
2023/09/19 03:22:59;;;;;;;4.17;2.70;;;16.90;99.90;;;;;;5014646;28;20547;-54
2023/09/19 03:25:25;;;;;;;3.93;2.97;;;16.90;99.90;;;;;;5010875;28;20899;-54
2023/09/19 03:27:53;;;;;;;8.80;2.40;;;16.90;99.90;;;;;;5024047;28;20494;-54
2023/09/19 03:30:20;;;;;;;5.10;3.00;;;16.90;99.90;;;;;;5025100;28;20462;-55
2023/09/19 03:32:49;;;;;;;4.43;2.30;;;16.80;99.90;;;;;;5010619;28;20578;-55
2023/09/19 03:35:16;;;;;;;4.37;2.47;;;16.80;99.90;;;;;;5010644;28;20495;-55
2023/09/19 03:37:43;;;;;;;4.27;2.10;;;16.80;99.90;;;;;;5010084;28;20551;-54
2023/09/19 03:40:11;;;;;;;5.40;2.50;;;16.80;99.90;;;;;;5011742;28;20583;-54
2023/09/19 03:42:39;;;;;;;6.70;1.80;;;16.70;99.90;;;;;;5014335;28;20918;-54
2023/09/19 03:45:11;;;;;;;3.07;2.40;;;16.70;99.90;;;;;;5016232;28;20561;-54
2023/09/19 03:47:38;;;;;;;5.50;2.60;;;16.70;99.90;;;;;;5016130;28;20471;-54
2023/09/19 03:50:07;;;;;;;2.70;2.00;;;16.70;99.90;;;;;;5020205;28;20451;-54
2023/09/19 03:52:33;;;;;;;2.00;1.50;;;16.70;99.90;;;;;;5013368;28;20486;-54
2023/09/19 03:55:00;;;;;;;10.60;2.53;;;16.70;99.90;;;;;;5004507;28;20570;-54
2023/09/19 03:57:27;;;;;;;5.73;2.00;;;16.70;99.90;;;;;;5009947;28;20556;-54
2023/09/19 03:59:54;;;;;;;4.10;2.10;;;16.70;99.90;;;;;;5002256;28;20459;-54
2023/09/19 04:02:23;;;;;;;2.30;1.43;;;16.70;99.90;;;;;;5015433;28;20471;-55
2023/09/19 04:04:50;;;;;;;3.73;1.67;;;16.60;99.90;;;;;;5014701;28;20483;-55
2023/09/19 04:07:16;;;;;;;6.20;2.13;;;16.60;22.00;;;;;;5003949;28;20454;-54
2023/09/19 04:09:43;;;;;;;3.43;1.40;;;16.70;26.80;;;;;;5018642;28;20530;-55
2023/09/19 04:12:09;;;;;;;5.77;1.60;;;16.60;26.20;;;;;;5013274;28;20929;-55
2023/09/19 04:14:36;;;;;;;4.43;1.70;;;16.60;28.50;;;;;;5014973;28;21043;-55
2023/09/19 04:17:03;;;;;;;5.47;1.60;;;16.50;33.10;;;;;;5008351;28;20644;-55
2023/09/19 04:19:31;;;;;;;6.30;1.50;;;16.60;34.30;;;;;;5011026;28;20463;-55
2023/09/19 04:21:57;;;;;;;4.40;1.80;;;16.50;36.60;;;;;;5011577;28;20464;-54
2023/09/19 04:24:24;;;;;;;6.23;2.20;;;16.50;42.10;;;;;;5011425;28;20494;-55
2023/09/19 04:26:50;;;;;;;3.43;1.70;;;16.50;42.20;;;;;;5020423;28;20549;-54
2023/09/19 04:29:19;;;;;;;3.43;1.67;;;16.50;40.40;;;;;;5007346;28;20862;-54
2023/09/19 04:31:45;;;;;;;3.20;2.00;;;16.40;41.80;;;;;;5006629;28;20459;-54
2023/09/19 04:34:17;;;;;;;3.10;1.83;;;16.30;42.90;;;;;;5007475;28;20495;-55
2023/09/19 04:36:45;;;;;;;2.93;1.43;;;16.30;42.70;;;;;;5008010;28;20553;-54
2023/09/19 04:39:12;;;;;;;2.13;1.50;;;16.20;46.90;;;;;;5010670;28;20522;-52
2023/09/19 04:41:41;;;;;;;6.63;1.90;;;16.30;49.70;;;;;;5011164;28;20468;-49
2023/09/19 04:44:08;;;;;;;3.93;1.70;;;16.30;50.30;;;;;;4996295;28;20472;-50
2023/09/19 04:46:34;;;;;;;1.60;1.50;;;16.30;54.80;;;;;;5001955;28;20980;-51
2023/09/19 04:49:02;;;;;;;3.40;1.90;;;16.30;56.20;;;;;;5014736;28;20590;-50
2023/09/19 04:51:32;;;;;;;2.70;1.60;;;16.30;59.40;;;;;;5011223;28;20522;-51
2023/09/19 04:54:00;;;;;;;1.60;1.50;;;16.30;60.40;;;;;;5006942;28;20480;-52
2023/09/19 04:56:28;;;;;;;4.33;1.63;;;16.20;65.60;;;;;;5010270;28;20559;-51
2023/09/19 04:58:54;;;;;;;2.03;1.30;;;16.20;66.60;;;;;;5004732;28;20471;-51
2023/09/19 05:01:23;;;;;;;3.20;1.77;;;16.30;71.40;;;;;;5012433;28;21041;-51
2023/09/19 05:03:52;;;;;;;4.23;1.83;;;16.30;70.40;;;;;;5007315;28;20470;-51
2023/09/19 05:06:18;;;;;;;6.30;2.47;;;16.30;74.50;;;;;;5014367;28;20459;-51
2023/09/19 05:08:45;;;;;;;3.77;2.00;;;16.20;76.70;;;;;;5011072;28;20483;-50
2023/09/19 05:11:13;;;;;;;3.90;1.50;;;16.20;78.30;;;;;;5010503;28;20550;-50
2023/09/19 05:13:39;;;;;;;3.13;1.67;;;16.30;80.30;;;;;;5006885;28;20531;-51
2023/09/19 05:16:06;;;;;;;4.17;1.87;;;16.30;81.50;;;;;;5009378;28;20583;-51
2023/09/19 05:18:33;;;;;;;6.30;2.03;;;16.30;83.90;;;;;;5009341;28;20514;-51
2023/09/19 05:21:02;;;;;;;8.50;2.00;;;16.30;86.00;;;;;;5013445;28;20474;-50
2023/09/19 05:23:29;;;;;;;1.87;1.73;;;16.30;85.40;;;;;;5007811;28;20559;-50
2023/09/19 05:25:57;;;;;;;28.60;2.03;;;16.20;84.70;;;;;;5010440;28;20495;-50
2023/09/19 05:28:25;;;;;;;4.30;2.30;;;16.20;84.40;;;;;;5013097;28;20977;-51
2023/09/19 05:30:53;;;;;;;4.63;1.30;;;16.20;83.30;;;;;;5000864;28;20468;-51
2023/09/19 05:33:19;;;;;;;6.20;1.77;;;16.10;81.80;;;;;;5006353;28;21075;-51
2023/09/19 05:35:48;;;;;;;1.80;1.70;;;16.10;78.50;;;;;;5012805;28;20496;-50
2023/09/19 05:38:18;;;;;;;2.90;2.10;;;16.10;78.30;;;;;;5003410;28;20468;-52
2023/09/19 05:40:46;;;;;;;4.83;1.73;;;16.10;79.80;;;;;;5014490;28;20462;-51
2023/09/19 05:43:14;;;;;;;2.90;1.60;;;16.10;81.80;;;;;;5012032;28;20547;-56
2023/09/19 05:45:41;;;;;;;6.53;1.70;;;16.20;81.60;;;;;;5010708;28;20491;-56
2023/09/19 05:48:09;;;;;;;4.73;3.00;;;16.20;81.60;;;;;;5015744;28;20491;-56
2023/09/19 05:50:36;;;;;;;8.70;3.33;;;16.20;83.00;;;;;;5022095;28;20486;-56
2023/09/19 05:53:04;;;;;;;7.17;3.27;;;16.20;84.00;;;;;;5010934;28;20540;-56
2023/09/19 05:55:30;;;;;;;6.33;3.37;;;16.30;88.20;;;;;;5006331;28;20495;-56
2023/09/19 05:57:57;;;;;;;6.93;3.50;;;16.30;87.90;;;;;;5004980;28;20571;-55
2023/09/19 06:00:26;;;;;;;5.73;3.40;;;16.30;87.70;;;;;;5020915;28;20548;-57
2023/09/19 06:02:54;;;;;;;4.77;3.20;;;16.40;86.60;;;;;;5022377;28;20486;-57
2023/09/19 06:05:21;;;;;;;6.50;3.20;;;16.40;86.40;;;;;;5006879;28;20508;-58
2023/09/19 06:07:48;;;;;;;3.57;2.10;;;16.40;85.80;;;;;;5009840;28;20502;-59
2023/09/19 06:10:15;;;;;;;10.17;3.30;;;16.40;87.70;;;;;;5007615;28;20467;-51
2023/09/19 06:12:44;;;;;;;7.03;2.57;;;16.40;85.00;;;;;;5010844;28;20466;-53
2023/09/19 06:15:15;;;;;;;3.63;2.23;;;16.40;88.50;;;;;;5009426;28;20505;-51
2023/09/19 06:17:42;;;;;;;4.87;1.80;;;16.50;87.60;;;;;;5008761;28;20471;-51
2023/09/19 06:20:14;;;;;;;10.53;2.07;;;16.60;88.60;;;;;;5000744;28;20617;-51
2023/09/19 06:22:42;;;;;;;2.57;1.77;;;16.60;93.10;;;;;;5012992;28;20492;-51
2023/09/19 06:25:11;;;;;;;2.73;2.03;;;16.70;99.90;;;;;;5011280;28;20483;-52
2023/09/19 06:27:38;;;;;;;5.27;2.13;;;16.60;99.90;;;;;;5003878;28;20459;-51
2023/09/19 06:30:06;;;;;;;2.97;1.87;;;16.70;98.50;;;;;;5011780;28;20562;-50
2023/09/19 06:32:32;;;;;;;5.23;1.97;;;16.80;96.10;;;;;;5018627;28;20462;-51
2023/09/19 06:34:59;;;;;;;4.07;2.23;;;16.90;99.90;;;;;;5011568;28;20496;-52
2023/09/19 06:37:29;;;;;;;7.87;1.70;;;16.90;99.90;;;;;;5013316;28;20451;-51
2023/09/19 06:39:56;;;;;;;2.80;1.33;;;17.00;99.90;;;;;;5011062;28;20495;-51
2023/09/19 06:42:23;;;;;;;3.17;1.80;;;17.10;99.90;;;;;;5008081;28;20463;-51
2023/09/19 06:44:50;;;;;;;6.63;2.37;;;17.20;99.90;;;;;;5022371;28;20532;-51
2023/09/19 06:47:16;;;;;;;5.17;2.30;;;17.30;99.90;;;;;;5014647;28;20586;-52
2023/09/19 06:49:43;;;;;;;3.83;1.83;;;17.40;99.90;;;;;;5004120;28;20452;-51
2023/09/19 06:52:10;;;;;;;10.80;2.23;;;17.50;99.90;;;;;;5016958;28;20459;-50
2023/09/19 06:54:39;;;;;;;8.47;2.07;;;17.60;99.90;;;;;;5015428;28;20538;-51
2023/09/19 06:57:09;;;;;;;9.97;2.30;;;17.70;99.90;;;;;;5013604;28;20463;-51
2023/09/19 06:59:37;;;;;;;7.70;1.97;;;17.70;99.90;;;;;;5010098;28;20466;-51
2023/09/19 07:02:06;;;;;;;4.07;2.10;;;17.80;99.90;;;;;;5009918;28;20958;-51
2023/09/19 07:04:33;;;;;;;7.13;2.43;;;17.90;99.90;;;;;;5007858;28;20475;-50
2023/09/19 07:07:00;;;;;;;8.83;2.67;;;17.90;99.90;;;;;;5006934;28;20494;-51
2023/09/19 07:09:27;;;;;;;6.00;2.40;;;17.90;99.90;;;;;;5004756;28;20558;-51
2023/09/19 07:11:56;;;;;;;10.00;2.70;;;17.90;99.90;;;;;;5004385;28;20917;-50
2023/09/19 07:14:22;;;;;;;5.83;2.30;;;17.90;99.90;;;;;;5007764;28;20491;-51
2023/09/19 07:16:49;;;;;;;3.70;2.20;;;17.90;99.90;;;;;;5007186;28;20467;-50
2023/09/19 07:19:16;;;;;;;5.63;2.73;;;17.80;99.90;;;;;;5008027;28;20864;-51
2023/09/19 07:21:42;;;;;;;5.73;2.20;;;17.80;99.90;;;;;;5011815;28;20464;-51
2023/09/19 07:24:09;;;;;;;10.30;2.23;;;17.70;99.90;;;;;;5009138;28;20480;-50
2023/09/19 07:26:36;;;;;;;8.37;2.73;;;17.70;99.90;;;;;;5009220;28;20451;-51
2023/09/19 07:29:04;;;;;;;4.90;2.00;;;17.70;99.90;;;;;;5015284;28;20551;-51
2023/09/19 07:31:31;;;;;;;4.97;2.37;;;17.70;99.90;;;;;;5025989;28;20455;-51
2023/09/19 07:33:58;;;;;;;2.47;1.90;;;17.80;99.90;;;;;;5013689;28;20510;-51
2023/09/19 07:36:25;;;;;;;7.37;2.40;;;17.70;99.90;;;;;;5016512;28;20952;-50
2023/09/19 07:38:51;;;;;;;6.23;2.60;;;17.70;99.90;;;;;;5019132;28;20459;-50
2023/09/19 07:41:18;;;;;;;4.60;2.20;;;17.70;99.90;;;;;;5020541;28;20494;-52
2023/09/19 07:43:44;;;;;;;7.43;2.10;;;17.70;99.90;;;;;;5030326;28;20473;-50
2023/09/19 07:46:12;;;;;;;4.93;2.10;;;17.80;99.90;;;;;;5015377;28;20570;-51
2023/09/19 07:48:40;;;;;;;13.90;2.47;;;17.70;99.90;;;;;;5009257;28;21038;-51
2023/09/19 07:51:08;;;;;;;4.67;2.37;;;17.70;99.90;;;;;;5003521;28;20507;-50
2023/09/19 07:53:36;;;;;;;3.93;1.40;;;17.70;99.90;;;;;;4995950;28;20885;-51
2023/09/19 07:56:03;;;;;;;6.43;2.70;;;17.80;99.90;;;;;;4999086;28;20487;-50
2023/09/19 07:58:31;;;;;;;5.50;2.17;;;17.90;99.90;;;;;;5013500;28;20522;-51
2023/09/19 08:00:57;;;;;;;5.63;2.30;;;18.00;99.90;;;;;;5004024;28;20475;-50
2023/09/19 08:03:25;;;;;;;7.47;2.30;;;18.00;99.90;;;;;;5000961;28;20558;-51
2023/09/19 08:05:51;;;;;;;12.23;2.40;;;18.00;99.90;;;;;;5000425;28;20501;-51
2023/09/19 08:08:18;;;;;;;8.30;2.47;;;17.80;99.90;;;;;;5014471;28;20459;-51
2023/09/19 08:10:48;;;;;;;9.00;2.50;;;17.80;99.90;;;;;;5019955;28;20527;-50
2023/09/19 08:13:17;;;;;;;6.50;2.07;;;17.80;99.90;;;;;;5020253;28;20543;-50
2023/09/19 08:15:44;;;;;;;5.00;2.70;;;17.70;99.90;;;;;;5008642;28;21092;-50
2023/09/19 08:18:11;;;;;;;9.90;2.27;;;17.60;99.90;;;;;;5001563;28;20459;-50
2023/09/19 08:20:42;;;;;;;12.47;2.73;;;17.50;99.90;;;;;;5008830;28;20459;-51
2023/09/19 08:23:09;;;;;;;9.13;2.67;;;17.50;99.90;;;;;;5007116;28;20503;-51
2023/09/19 08:25:38;;;;;;;5.17;2.70;;;17.60;99.90;;;;;;5009480;28;20538;-50
2023/09/19 08:28:08;;;;;;;9.83;2.30;;;17.60;99.90;;;;;;5007387;28;20850;-51
2023/09/19 08:30:35;;;;;;;5.27;2.50;;;17.50;99.90;;;;;;5012018;28;20499;-50
2023/09/19 08:33:04;;;;;;;13.30;3.10;;;17.60;99.90;;;;;;5009348;28;20460;-51
2023/09/19 08:35:31;;;;;;;9.33;2.40;;;17.60;99.90;;;;;;5011317;28;20483;-51
2023/09/19 08:38:00;;;;;;;5.67;2.87;;;17.70;99.90;;;;;;5016734;28;20534;-56
2023/09/19 08:40:28;;;;;;;6.30;2.60;;;17.80;99.90;;;;;;5013987;28;20483;-57
2023/09/19 08:42:56;;;;;;;15.80;2.80;;;18.10;99.90;;;;;;5021469;28;20472;-56
2023/09/19 08:45:24;;;;;;;8.00;2.70;;;18.10;99.90;;;;;;5020282;28;20476;-56
2023/09/19 08:47:59;;;;;;;5.97;2.90;;;18.20;99.90;;;;;;5008767;28;20467;-56
2023/09/19 08:50:29;;;;;;;15.57;2.53;;;18.40;97.40;;;;;;5010873;28;20536;-56
2023/09/19 08:52:57;;;;;;;11.63;3.00;;;18.40;30.70;;;;;;5007834;28;20554;-56
2023/09/19 08:55:29;;;;;;;3.93;2.37;;;18.60;46.50;;;;;;5009674;28;21021;-55
2023/09/19 08:58:01;;;;;;;5.93;2.33;;;18.70;66.00;;;;;;5005846;28;20554;-55
2023/09/19 09:00:29;;;;;;;13.17;3.10;;;18.90;67.80;;;;;;5012269;28;20451;-55
2023/09/19 09:02:57;;;;;;;6.77;2.27;;;18.80;88.00;;;;;;5008886;28;20873;-56
2023/09/19 09:05:26;;;;;;;14.70;3.03;;;18.70;99.90;;;;;;5009154;28;20562;-56
2023/09/19 09:07:56;;;;;;;13.17;2.73;;;18.80;92.90;;;;;;5006720;28;20474;-57
2023/09/19 09:10:22;;;;;;;4.80;2.27;;;18.70;91.40;;;;;;5006700;28;20432;-60
2023/09/19 09:12:53;;;;;;;9.43;2.80;;;18.80;97.60;;;;;;5009587;28;20459;-56
2023/09/19 09:15:23;;;;;;;19.50;3.00;;;19.00;94.20;;;;;;5006902;28;20487;-55
2023/09/19 09:17:50;;;;;;;9.60;2.83;;;18.90;99.90;;;;;;5009439;28;20463;-56
2023/09/19 09:20:17;;;;;;;5.33;2.50;;;18.90;99.90;;;;;;5027455;28;20466;-63
2023/09/19 09:22:52;;;;;;;14.43;3.27;;;18.70;99.90;;;;;;5011021;28;20487;-56
2023/09/19 09:25:19;;;;;;;5.80;2.57;;;18.60;99.90;;;;;;5013352;28;20550;-56
2023/09/19 09:27:49;;;;;;;4.80;2.37;;;18.60;99.90;;;;;;5010635;28;20551;-55
2023/09/19 09:30:34;;;;;;;13.77;2.57;;;18.40;99.90;;;;;;5016023;28;20463;-57
2023/09/19 09:33:10;;;;;;;6.93;2.63;;;18.10;99.90;;;;;;5013323;28;21000;-56
2023/09/19 09:35:36;;;;;;;9.70;2.67;;;18.20;99.90;;;;;;5010047;28;20483;-56
2023/09/19 09:38:08;;;;;;;11.73;3.20;;;18.30;99.90;;;;;;5018423;28;20565;-56
2023/09/19 09:40:49;;;;;;;9.27;2.80;;;18.30;99.90;;;;;;5014812;28;20459;-56
2023/09/19 09:43:27;;;;;;;5.47;2.30;;;18.80;99.90;;;;;;5019769;28;20470;-56
2023/09/19 09:49:19;;;;;;;7.37;2.30;;;19.10;99.90;;;;;;5007808;28;20450;-56
2023/09/19 09:51:57;;;;;;;11.90;3.33;;;19.30;99.90;;;;;;5015657;28;20534;-55
2023/09/19 09:54:24;;;;;;;8.63;3.00;;;19.50;99.90;;;;;;5004063;28;20486;-56
2023/09/19 09:56:59;;;;;;;11.30;3.20;;;19.50;99.90;;;;;;5013622;28;20961;-56
2023/09/19 09:59:50;;;;;;;11.67;2.77;;;19.90;99.90;;;;;;5010467;28;20462;-56
2023/09/19 10:02:24;;;;;;;5.90;3.00;;;20.00;99.90;;;;;;5010062;28;20962;-56
2023/09/19 10:04:58;;;;;;;4.90;2.80;;;20.20;99.90;;;;;;5015637;28;20483;-56
2023/09/19 10:07:31;;;;;;;8.30;3.00;;;20.60;99.90;;;;;;5013697;28;20450;-56
2023/09/19 10:10:04;;;;;;;10.00;2.53;;;20.50;99.90;;;;;;5010791;28;20976;-55
2023/09/19 10:12:33;;;;;;;7.37;3.50;;;20.70;99.90;;;;;;5004823;28;20460;-56
2023/09/19 10:15:03;;;;;;;7.30;2.90;;;21.20;99.90;;;;;;5010685;28;20487;-56
2023/09/19 10:17:34;;;;;;;10.70;3.03;;;21.70;99.90;;;;;;5012593;28;20535;-56
2023/09/19 10:20:09;;;;;;;8.50;3.03;;;22.40;99.90;;;;;;5010842;28;20559;-56
2023/09/19 10:22:37;;;;;;;15.80;4.03;;;22.80;99.90;;;;;;5006317;28;20459;-55
2023/09/19 10:25:08;;;;;;;6.10;3.33;;;22.60;99.90;;;;;;5003721;28;20592;-56
2023/09/19 10:27:37;;;;;;;6.43;3.03;;;22.00;99.90;;;;;;5006433;28;20464;-56
2023/09/19 10:30:08;;;;;;;8.93;2.80;;;22.10;99.90;;;;;;5012678;28;20965;-57
2023/09/19 10:32:37;;;;;;;8.93;3.07;;;21.80;99.90;;;;;;5020638;28;20964;-56
2023/09/19 10:35:07;;;;;;;5.67;2.27;;;21.60;99.90;;;;;;5009525;28;20488;-56
2023/09/19 10:37:34;;;;;;;31.00;3.10;;;21.50;99.90;;;;;;5006805;28;20514;-56
2023/09/19 10:40:01;;;;;;;6.20;3.10;;;21.80;99.90;;;;;;5016141;28;20555;-57
2023/09/19 10:42:29;;;;;;;5.40;2.97;;;22.00;99.90;;;;;;5011696;28;20542;-56
2023/09/19 10:44:59;;;;;;;7.50;2.90;;;22.30;99.90;;;;;;5014547;28;20985;-56
2023/09/19 10:47:26;;;;;;;6.43;3.03;;;21.70;99.90;;;;;;5012646;28;20463;-56
2023/09/19 10:49:54;;;;;;;6.33;2.93;;;21.40;99.90;;;;;;5012662;28;20554;-56
2023/09/19 10:52:25;;;;;;;11.40;3.37;;;21.30;99.90;;;;;;5017337;28;20464;-56
2023/09/19 10:54:57;;;;;;;5.03;2.73;;;20.90;99.90;;;;;;5012128;28;20515;-56
2023/09/19 10:57:27;;;;;;;6.13;3.30;;;20.60;99.90;;;;;;5005375;28;20969;-56
2023/09/19 11:00:21;;;;;;;5.87;2.43;;;20.60;99.90;;;;;;5007990;28;20543;-55
2023/09/19 11:03:18;;;;;;;4.87;2.90;;;20.50;99.90;;;;;;5010794;28;20934;-57
2023/09/19 11:06:05;;;;;;;5.87;2.30;;;20.50;99.90;;;;;;5007207;28;20471;-57
2023/09/19 11:08:45;;;;;;;13.30;2.30;;;20.50;99.90;;;;;;5009556;28;20467;-57
2023/09/19 11:11:52;;;;;;;11.13;3.93;;;20.30;99.90;;;;;;5010527;28;20546;-56
2023/09/19 11:14:38;;;;;;;10.60;2.93;;;20.10;99.90;;;;;;5016054;28;20479;-56
2023/09/19 11:17:46;;;;;;;11.30;2.90;;;20.10;99.90;;;;;;5010462;28;20460;-56
2023/09/19 11:20:35;;;;;;;10.43;3.23;;;20.20;99.90;;;;;;5009632;28;20467;-55
2023/09/19 11:23:26;;;;;;;10.90;3.37;;;20.00;99.90;;;;;;5004137;28;20447;-56
2023/09/19 11:25:54;;;;;;;9.60;2.73;;;19.70;99.90;;;;;;5013232;28;20515;-52
2023/09/19 11:28:38;;;;;;;6.40;3.00;;;19.70;99.90;;;;;;5008836;28;20479;-50
2023/09/19 11:31:55;;;;;;;7.53;2.50;;;19.70;99.90;;;;;;5008148;28;20456;-51
2023/09/19 11:34:45;;;;;;;13.70;3.07;;;19.90;99.90;;;;;;5008713;28;20494;-51
2023/09/19 11:38:11;;;;;;;13.87;2.63;;;19.90;99.90;;;;;;5009833;28;20549;-51
2023/09/19 11:40:39;;;;;;;442.63;43.13;;;19.80;99.90;;;;;;5015417;28;20460;-50
2023/09/19 11:43:34;;;;;;;9.70;3.60;;;20.10;99.90;;;;;;5010726;28;20494;-50
2023/09/19 11:46:10;;;;;;;9.47;2.90;;;20.10;99.90;;;;;;5006983;28;20898;-51
2023/09/19 11:48:41;;;;;;;7.90;3.43;;;19.90;99.90;;;;;;5003427;28;20471;-50
2023/09/19 11:51:18;;;;;;;19.43;2.73;;;20.00;99.90;;;;;;5011961;28;20882;-50
2023/09/19 11:53:48;;;;;;;12.93;3.00;;;20.10;99.90;;;;;;5010882;28;20470;-50
2023/09/19 11:56:17;;;;;;;8.50;2.70;;;20.00;99.90;;;;;;5006416;28;20594;-51
2023/09/19 11:58:44;;;;;;;10.03;2.70;;;20.00;99.90;;;;;;5012675;28;20488;-50
2023/09/19 12:01:15;;;;;;;6.77;2.70;;;20.10;99.90;;;;;;5012171;28;20471;-50
2023/09/19 12:03:47;;;;;;;6.40;2.50;;;20.10;99.90;;;;;;5013003;28;20466;-51
2023/09/19 12:06:15;;;;;;;6.43;2.50;;;20.00;99.90;;;;;;5008945;28;20558;-51
2023/09/19 12:08:43;;;;;;;6.30;2.30;;;19.80;99.90;;;;;;5006683;28;20471;-50
2023/09/19 12:11:14;;;;;;;17.63;2.57;;;20.00;99.90;;;;;;5000556;28;21016;-51
2023/09/19 12:13:45;;;;;;;9.07;2.70;;;20.20;99.90;;;;;;5005002;28;20829;-51
2023/09/19 12:16:16;;;;;;;10.07;2.47;;;20.20;99.90;;;;;;5005991;28;20553;-51
2023/09/19 12:18:44;;;;;;;11.80;2.70;;;20.20;99.90;;;;;;5010573;28;20478;-51
2023/09/19 12:21:23;;;;;;;6.03;2.23;;;20.30;99.90;;;;;;5013590;28;20516;-51
2023/09/19 12:23:59;;;;;;;11.70;2.70;;;20.50;99.90;;;;;;5001426;28;20554;-51
2023/09/19 12:26:28;;;;;;;9.97;2.33;;;20.80;99.90;;;;;;5001248;28;21020;-50
2023/09/19 12:28:57;;;;;;;6.90;2.67;;;20.90;99.90;;;;;;5010938;28;20895;-51
2023/09/19 12:31:26;;;;;;;10.67;1.90;;;21.10;99.90;;;;;;5009922;28;20456;-52
2023/09/19 12:33:54;;;;;;;7.53;2.10;;;20.90;99.90;;;;;;5012638;28;21009;-51
2023/09/19 12:36:25;;;;;;;21.07;2.43;;;20.70;99.90;;;;;;5011892;28;20839;-51
2023/09/19 12:38:53;;;;;;;8.37;2.37;;;20.80;99.90;;;;;;5009080;28;20514;-50
2023/09/19 12:41:20;;;;;;;11.80;2.40;;;20.80;99.90;;;;;;5007242;28;20479;-52
2023/09/19 12:43:47;;;;;;;4.13;1.80;;;20.80;99.90;;;;;;5006718;28;20455;-51
2023/09/19 12:46:19;;;;;;;5.40;2.20;;;20.90;99.90;;;;;;5006399;28;20883;-51
2023/09/19 12:48:47;;;;;;;4.10;2.10;;;20.90;99.90;;;;;;5014623;28;20463;-51
2023/09/19 12:51:16;;;;;;;3.93;2.03;;;20.90;99.90;;;;;;5005656;28;20463;-50
2023/09/19 12:53:45;;;;;;;5.97;2.03;;;20.90;99.90;;;;;;5004754;28;20944;-50
2023/09/19 12:56:15;;;;;;;9.47;2.87;;;20.70;99.90;;;;;;5006885;28;20499;-50
2023/09/19 12:58:54;;;;;;;4.50;1.83;;;20.70;99.90;;;;;;5013148;28;20475;-51
2023/09/19 13:01:24;;;;;;;6.90;3.17;;;20.50;99.90;;;;;;5008100;28;20495;-51
2023/09/19 13:04:18;;;;;;;9.97;2.57;;;20.50;99.90;;;;;;5015184;28;20499;-50
2023/09/19 13:06:45;;;;;;;7.87;2.27;;;20.30;99.90;;;;;;5014329;28;20483;-51